Albuquerque (West), New Mexico
Current Conditions -  °F | °C
As of 4:35 AM on Monday 22 Dec 2014 (Local Time) from KAEG Reporting Station
Clear Clear  
Wind Chill: 28°   Ceiling: Unl
Heat Index: 35°   Visibility: 10mi
Dew Point: 30°   Wind: 10mph
Humidity: 80%   Direction: 250°WSW
Pressure: 29.91"   Gusts: NA
Location:  35.15°N, 106.8°W
Report Text: KAEG 221135Z AUTO 25009KT 10SM CLR 02/M01 A2991 RMK AO2 T00191013
Loading
Personal Weather Stations






























Interactive Weather Map New forecast layout! Learn more

10-Day Weather Forecast

Advertisements
Track Severe Weather on mobile